createdAt,value
2022-07-25T00:03:25.178Z,2.30
2022-07-25T00:08:29.975Z,1.90
2022-07-25T00:13:31.528Z,2.00
2022-07-25T00:18:33.391Z,1.83
2022-07-25T00:23:34.875Z,1.73
2022-07-25T00:28:36.310Z,2.20
2022-07-25T00:33:40.484Z,1.67
2022-07-25T00:38:41.943Z,2.15
2022-07-25T00:43:44.444Z,1.75
2022-07-25T00:48:46.042Z,2.25
2022-07-25T00:53:47.616Z,2.00
2022-07-25T00:58:49.078Z,2.20
2022-07-25T01:03:50.644Z,2.15
2022-07-25T01:08:52.441Z,2.40
2022-07-25T01:13:53.991Z,1.88
2022-07-25T01:18:55.446Z,2.00
2022-07-25T01:23:56.905Z,1.98
2022-07-25T01:28:58.438Z,2.10
2022-07-25T01:33:59.876Z,2.05
2022-07-25T01:39:01.504Z,2.00
2022-07-25T01:44:03.195Z,2.13
2022-07-25T01:49:05.009Z,1.98
2022-07-25T01:54:10.311Z,2.40
2022-07-25T01:59:12.094Z,1.95
2022-07-25T02:04:13.661Z,2.28
2022-07-25T02:09:15.267Z,2.08
2022-07-25T02:14:16.947Z,2.10
2022-07-25T02:19:18.502Z,1.85
2022-07-25T02:24:19.946Z,2.20
2022-07-25T02:29:21.872Z,1.98
2022-07-25T02:34:23.738Z,2.10
2022-07-25T02:39:25.494Z,2.30
2022-07-25T02:44:26.979Z,1.90
2022-07-25T02:49:28.582Z,2.13
2022-07-25T02:54:30.043Z,2.22
2022-07-25T02:59:32.072Z,2.00
2022-07-25T03:04:33.966Z,2.03
2022-07-25T03:09:35.463Z,2.05
2022-07-25T03:14:37.423Z,2.08
2022-07-25T03:19:38.919Z,1.85
2022-07-25T03:24:40.459Z,2.10
2022-07-25T03:29:42.220Z,2.17
2022-07-25T03:34:43.893Z,1.95
2022-07-25T03:39:45.562Z,2.00
2022-07-25T03:44:47.022Z,2.60
2022-07-25T03:49:48.482Z,2.47
2022-07-25T03:54:49.944Z,2.45
2022-07-25T03:59:51.398Z,2.28
2022-07-25T04:04:52.948Z,2.53
2022-07-25T04:09:54.471Z,1.90
2022-07-25T04:14:55.923Z,2.40
2022-07-25T04:19:57.406Z,2.40
2022-07-25T04:24:58.919Z,2.30
2022-07-25T04:30:00.456Z,2.03
2022-07-25T04:35:01.918Z,2.63
2022-07-25T04:40:04.313Z,2.72
2022-07-25T04:45:05.971Z,2.60
2022-07-25T04:50:08.196Z,2.42
2022-07-25T04:55:09.858Z,2.75
2022-07-25T05:00:11.654Z,2.55
2022-07-25T05:05:21.161Z,2.80
2022-07-25T05:10:23.619Z,2.88
2022-07-25T05:15:25.159Z,2.85
2022-07-25T05:20:26.727Z,2.88
2022-07-25T05:25:29.261Z,2.80
2022-07-25T05:30:30.734Z,2.50
2022-07-25T05:35:32.238Z,2.90
2022-07-25T05:40:33.765Z,2.72
2022-07-25T05:45:35.234Z,2.95
2022-07-25T05:50:37.072Z,2.63
2022-07-25T05:55:40.785Z,2.45
2022-07-25T06:00:42.479Z,3.03
2022-07-25T06:05:44.203Z,2.60
2022-07-25T06:10:45.713Z,3.13
2022-07-25T06:15:47.809Z,2.70
2022-07-25T06:20:49.734Z,2.97
2022-07-25T06:25:51.256Z,2.42
2022-07-25T06:30:52.811Z,2.65
2022-07-25T06:35:54.297Z,3.13
2022-07-25T06:40:55.844Z,2.80
2022-07-25T06:45:57.320Z,3.13
2022-07-25T06:50:58.773Z,2.60
2022-07-25T06:56:00.239Z,3.53
2022-07-25T07:01:01.758Z,2.97
2022-07-25T07:06:03.604Z,3.20
2022-07-25T07:11:05.839Z,3.28
2022-07-25T07:16:07.573Z,3.40
2022-07-25T07:21:10.104Z,3.05
2022-07-25T07:26:22.095Z,3.17
2022-07-25T07:31:23.649Z,3.45
2022-07-25T07:36:25.315Z,3.65
2022-07-25T07:41:26.808Z,3.25
2022-07-25T07:46:29.262Z,3.28
2022-07-25T07:51:30.814Z,3.10
2022-07-25T07:56:32.290Z,3.33
2022-07-25T08:01:34.924Z,3.35
2022-07-25T08:06:36.801Z,3.55
2022-07-25T08:11:38.250Z,2.90
2022-07-25T08:16:39.838Z,3.00
2022-07-25T08:21:41.375Z,3.58
2022-07-25T08:26:42.855Z,2.97
2022-07-25T08:31:44.388Z,3.70
2022-07-25T08:36:45.913Z,3.75
2022-07-25T08:41:47.541Z,3.45
2022-07-25T08:46:49.822Z,3.40
2022-07-25T08:51:51.603Z,3.58
2022-07-25T08:56:53.423Z,3.47
2022-07-25T09:01:54.997Z,3.30
2022-07-25T09:06:56.497Z,2.92
2022-07-25T09:11:58.655Z,3.40
2022-07-25T09:17:05.807Z,3.05
2022-07-25T09:22:13.569Z,2.72
2022-07-25T09:27:18.259Z,2.85
2022-07-25T09:32:21.353Z,3.15
2022-07-25T09:37:25.812Z,3.35
2022-07-25T09:42:28.609Z,3.25
2022-07-25T09:47:30.851Z,3.40
2022-07-25T09:52:33.773Z,3.17
2022-07-25T09:57:35.387Z,2.80
2022-07-25T10:02:36.887Z,3.30
2022-07-25T10:07:39.912Z,3.45
2022-07-25T10:12:41.403Z,3.42
2022-07-25T10:17:42.930Z,3.15
2022-07-25T10:22:56.357Z,3.33
2022-07-25T10:28:04.185Z,2.83
2022-07-25T10:33:11.247Z,3.58
2022-07-25T10:38:12.924Z,2.88
2022-07-25T10:43:21.791Z,3.25
2022-07-25T10:48:25.135Z,3.70
2022-07-25T10:53:34.006Z,3.45
2022-07-25T10:59:01.574Z,3.58
2022-07-25T11:04:05.414Z,3.38
2022-07-25T11:09:18.539Z,3.67
2022-07-25T11:14:22.667Z,3.08
2022-07-25T11:19:28.211Z,3.20
2022-07-25T11:24:46.396Z,3.05
2022-07-25T11:29:47.895Z,3.58
2022-07-25T11:34:50.870Z,3.17
2022-07-25T11:39:53.179Z,3.10
2022-07-25T11:44:54.718Z,2.97
2022-07-25T11:49:58.314Z,3.10
2022-07-25T11:55:08.575Z,3.00
2022-07-25T12:00:17.608Z,3.10
2022-07-25T12:05:22.288Z,3.10
2022-07-25T12:10:23.747Z,3.40
2022-07-25T12:15:26.561Z,3.20
2022-07-25T12:20:29.483Z,3.30
2022-07-25T12:25:31.737Z,4.28
2022-07-25T12:30:34.184Z,3.47
2022-07-25T12:35:37.550Z,3.30
2022-07-25T12:40:39.128Z,3.42
2022-07-25T12:45:40.894Z,3.25
2022-07-25T12:50:43.110Z,3.13
2022-07-25T12:55:44.561Z,3.30
2022-07-25T13:00:46.820Z,3.67
2022-07-25T13:05:48.537Z,3.03
2022-07-25T13:10:50.029Z,3.00
2022-07-25T13:15:51.771Z,3.30
2022-07-25T13:20:53.303Z,3.25
2022-07-25T13:25:54.856Z,3.03
2022-07-25T13:30:56.319Z,4.35
2022-07-25T13:35:57.780Z,3.58
2022-07-25T13:40:59.326Z,3.13
2022-07-25T13:46:01.289Z,2.95
2022-07-25T13:51:02.899Z,3.25
2022-07-25T13:56:04.693Z,3.50
2022-07-25T14:01:07.466Z,2.70
2022-07-25T14:06:10.711Z,2.80
2022-07-25T14:11:12.182Z,3.05
2022-07-25T14:16:19.149Z,2.58
2022-07-25T14:21:20.654Z,3.00
2022-07-25T14:26:22.415Z,2.92
2022-07-25T14:31:23.969Z,2.30
2022-07-25T14:36:25.546Z,2.58
2022-07-25T14:41:27.077Z,2.55
2022-07-25T14:46:28.618Z,2.53
2022-07-25T14:51:30.711Z,2.78
2022-07-25T14:56:32.254Z,2.42
2022-07-25T15:01:33.956Z,2.42
2022-07-25T15:06:35.826Z,2.53
2022-07-25T15:11:37.394Z,2.78
2022-07-25T15:16:39.237Z,2.40
2022-07-25T15:21:40.772Z,2.47
2022-07-25T15:26:42.368Z,2.67
2022-07-25T15:31:43.908Z,2.67
2022-07-25T15:36:45.472Z,2.35
2022-07-25T15:41:46.976Z,2.40
2022-07-25T15:46:48.517Z,2.55
2022-07-25T15:51:50.087Z,2.40
2022-07-25T15:56:51.633Z,2.30
2022-07-25T16:01:53.231Z,2.00
2022-07-25T16:06:54.767Z,2.08
2022-07-25T16:11:56.232Z,2.00
2022-07-25T16:16:57.780Z,2.45
2022-07-25T16:21:59.381Z,2.40
2022-07-25T16:27:00.839Z,2.40
2022-07-25T16:32:02.318Z,2.40
2022-07-25T16:37:04.193Z,2.13
2022-07-25T16:42:05.721Z,2.17
2022-07-25T16:47:07.616Z,2.33
2022-07-25T16:52:09.154Z,2.67
2022-07-25T16:57:10.708Z,2.20
2022-07-25T17:02:12.228Z,2.08
2022-07-25T17:07:14.063Z,2.30
2022-07-25T17:12:16.629Z,2.10
2022-07-25T17:17:18.100Z,2.28
2022-07-25T17:22:20.346Z,2.17
2022-07-25T17:27:21.964Z,2.20
2022-07-25T17:32:27.770Z,2.17
2022-07-25T17:37:31.316Z,2.17
2022-07-25T17:42:32.795Z,2.40
2022-07-25T17:47:35.014Z,3.10
2022-07-25T17:52:36.498Z,2.65
2022-07-25T17:57:42.446Z,2.35
2022-07-25T18:02:44.017Z,2.70
2022-07-25T18:07:46.364Z,3.28
2022-07-25T18:12:48.447Z,2.80
2022-07-25T18:17:49.950Z,2.53
2022-07-25T18:22:51.431Z,2.72
2022-07-25T18:27:53.003Z,3.17
2022-07-25T18:32:54.487Z,2.88
2022-07-25T18:37:55.978Z,3.03
2022-07-25T18:42:57.443Z,2.72
2022-07-25T18:47:59.163Z,3.20
2022-07-25T18:53:00.756Z,2.47
2022-07-25T18:58:02.322Z,2.92
2022-07-25T19:03:04.075Z,2.78
2022-07-25T19:08:05.843Z,2.72
2022-07-25T19:13:07.629Z,2.78
2022-07-25T19:18:09.234Z,2.63
2022-07-25T19:23:10.843Z,2.60
2022-07-25T19:28:12.851Z,2.65
2022-07-25T19:33:14.467Z,2.47
2022-07-25T19:38:15.953Z,2.28
2022-07-25T19:43:17.465Z,2.60
2022-07-25T19:48:18.979Z,2.63
2022-07-25T19:53:23.118Z,2.45
2022-07-25T19:58:28.665Z,2.80
2022-07-25T20:03:30.170Z,2.13
2022-07-25T20:08:31.710Z,2.60
2022-07-25T20:13:33.242Z,2.65
2022-07-25T20:18:34.709Z,2.65
2022-07-25T20:23:36.207Z,2.50
2022-07-25T20:28:38.218Z,2.25
2022-07-25T20:33:39.705Z,2.75
2022-07-25T20:38:41.162Z,2.92
2022-07-25T20:43:43.355Z,2.90
2022-07-25T20:48:44.955Z,2.63
2022-07-25T20:53:51.581Z,2.50
2022-07-25T20:58:55.264Z,2.50
2022-07-25T21:03:56.746Z,2.80
2022-07-25T21:08:58.242Z,2.90
2022-07-25T21:13:59.722Z,2.72
2022-07-25T21:19:01.996Z,2.53
2022-07-25T21:24:03.607Z,2.67
2022-07-25T21:29:05.865Z,2.47
2022-07-25T21:34:07.568Z,2.72
2022-07-25T21:39:09.593Z,3.05
2022-07-25T21:44:11.462Z,3.78
2022-07-25T21:49:41.603Z,3.80
2022-07-25T21:54:44.343Z,3.55
2022-07-25T21:59:46.037Z,4.90
2022-07-25T22:04:47.483Z,3.88
2022-07-25T22:09:48.939Z,4.50
2022-07-25T22:14:50.470Z,4.78
2022-07-25T22:19:51.961Z,4.30
2022-07-25T22:24:53.410Z,4.55
2022-07-25T22:29:54.915Z,4.30
2022-07-25T22:34:56.390Z,4.43
2022-07-25T22:40:00.896Z,4.28
2022-07-25T22:45:03.323Z,4.32
2022-07-25T22:50:05.440Z,4.30
2022-07-25T22:55:07.025Z,5.03
2022-07-25T23:00:09.853Z,3.70
2022-07-25T23:05:11.424Z,4.75
2022-07-25T23:10:12.948Z,4.72
2022-07-25T23:15:14.384Z,4.93
2022-07-25T23:20:16.055Z,4.55
2022-07-25T23:25:17.507Z,4.63
2022-07-25T23:30:19.062Z,4.50
2022-07-25T23:35:20.540Z,4.78
2022-07-25T23:40:22.122Z,4.22
2022-07-25T23:45:27.828Z,4.50
2022-07-25T23:50:29.978Z,4.78
2022-07-25T23:55:31.430Z,4.85
